Time;durP1;ratioP1;P1;durP2;ratioP2;P2;SDS_P1;SDS_P2;PMS_P1;PMS_P2;Temp;Humidity;BMP_temperature;BMP_pressure;BME280_temperature;BME280_humidity;BME280_pressure;Samples;Min_cycle;Max_cycle;Signal;HPM_P1;HPM_P2
2022/09/26 00:00:31;;;;;;;3.40;2.83;;;19.30;59.50;20.40;100229.00;;;;4970106;28;20288;-43
2022/09/26 00:02:57;;;;;;;3.00;2.70;;;19.30;59.50;20.40;100228.00;;;;4970132;28;20165;-43
2022/09/26 00:05:23;;;;;;;3.03;2.60;;;19.30;59.50;20.40;100217.00;;;;4969744;28;20244;-43
2022/09/26 00:07:48;;;;;;;2.87;2.63;;;19.20;59.30;20.40;100213.00;;;;4970127;28;20181;-43
2022/09/26 00:10:14;;;;;;;2.90;2.60;;;19.20;59.40;20.30;100208.00;;;;4970130;28;20498;-43
2022/09/26 00:12:40;;;;;;;3.07;2.77;;;19.20;59.50;20.30;100211.00;;;;4969288;28;20231;-43
2022/09/26 00:15:06;;;;;;;4.80;2.60;;;19.20;59.30;20.30;100200.00;;;;4968200;28;20197;-43
2022/09/26 00:17:32;;;;;;;3.10;2.63;;;19.20;59.40;20.30;100206.00;;;;4968651;28;20205;-42
2022/09/26 00:19:58;;;;;;;3.17;2.60;;;19.20;59.40;20.30;100202.00;;;;4969630;28;20173;-42
2022/09/26 00:22:23;;;;;;;4.27;2.50;;;19.20;59.30;20.20;100194.00;;;;4969786;28;20192;-43
2022/09/26 00:24:49;;;;;;;3.00;2.70;;;19.20;59.30;20.20;100196.00;;;;4969772;28;20725;-43
2022/09/26 00:27:15;;;;;;;2.90;2.57;;;19.20;59.40;20.20;100192.00;;;;4969950;28;20513;-43
2022/09/26 00:29:41;;;;;;;3.27;2.90;;;19.10;59.30;20.20;100198.00;;;;4969623;28;20161;-43
2022/09/26 00:32:06;;;;;;;4.87;2.90;;;19.10;59.30;20.20;100179.00;;;;4969555;28;20741;-43
2022/09/26 00:34:32;;;;;;;4.97;3.17;;;19.10;59.30;20.20;100182.00;;;;4969115;28;20193;-42
2022/09/26 00:36:58;;;;;;;2.80;2.60;;;19.10;59.30;20.20;100177.00;;;;4968166;28;20256;-42
2022/09/26 00:39:23;;;;;;;3.20;2.90;;;19.10;59.30;20.20;100184.00;;;;4969164;28;20652;-42
2022/09/26 00:41:49;;;;;;;3.13;2.83;;;19.10;59.30;20.10;100171.00;;;;4969075;28;20180;-42
2022/09/26 00:44:55;;;;;;;3.33;3.00;;;19.10;59.40;20.10;100163.00;;;;4968987;28;20214;-43
2022/09/26 00:47:32;;;;;;;4.60;2.70;;;19.00;59.30;20.10;100161.00;;;;4928157;29;20178;-42
2022/09/26 00:50:05;;;;;;;5.40;2.97;;;19.10;59.30;20.10;100141.00;;;;4965715;28;20180;-42
2022/09/26 00:52:37;;;;;;;2.80;2.60;;;19.00;59.10;20.10;100147.00;;;;4968067;28;20208;-44
2022/09/26 00:55:05;;;;;;;2.90;2.60;;;19.00;59.20;20.10;100147.00;;;;4967723;28;20639;-43
2022/09/26 00:58:15;;;;;;;3.60;2.70;;;19.00;59.30;20.10;100143.00;;;;4952013;28;20239;-43
2022/09/26 01:00:41;;;;;;;3.13;2.70;;;19.00;59.10;20.00;100137.00;;;;4961686;28;20487;-43
2022/09/26 01:03:07;;;;;;;3.00;2.70;;;19.00;59.10;20.00;100137.00;;;;4969327;28;20239;-42
2022/09/26 01:05:33;;;;;;;3.03;2.67;;;19.00;59.10;20.00;100130.00;;;;4969514;28;20287;-43
2022/09/26 01:07:59;;;;;;;3.10;2.60;;;19.00;59.10;20.00;100126.00;;;;4967979;28;20177;-43
2022/09/26 01:10:25;;;;;;;3.90;2.70;;;18.90;58.90;20.00;100133.00;;;;4968429;28;20223;-44
2022/09/26 01:12:51;;;;;;;2.93;2.60;;;18.90;59.00;20.00;100122.00;;;;4969546;28;20185;-43
2022/09/26 01:15:17;;;;;;;3.47;2.67;;;18.90;59.00;20.00;100124.00;;;;4967783;28;20199;-43
2022/09/26 01:17:43;;;;;;;3.23;2.70;;;18.90;59.10;19.90;100127.00;;;;4969391;28;20227;-43
2022/09/26 01:20:33;;;;;;;3.33;2.60;;;18.90;59.00;19.90;100127.00;;;;4968162;28;20271;-43
2022/09/26 01:23:17;;;;;;;3.67;2.70;;;18.90;59.00;19.90;100125.00;;;;4969208;28;20161;-43
2022/09/26 01:26:03;;;;;;;2.90;2.40;;;18.90;59.00;19.90;100114.00;;;;4971356;28;20220;-42
2022/09/26 01:29:15;;;;;;;5.10;2.80;;;18.90;59.10;19.90;100119.00;;;;4973482;28;20303;-42
2022/09/26 01:35:34;;;;;;;3.50;2.60;;;18.90;58.90;19.80;100102.00;;;;4953597;28;20272;-43
2022/09/26 01:38:34;;;;;;;3.00;2.70;;;18.80;58.90;19.80;100100.00;;;;4972859;28;20204;-43
2022/09/26 01:41:32;;;;;;;2.90;2.60;;;18.80;59.00;19.80;100102.00;;;;4972731;28;20172;-44
2022/09/26 01:44:28;;;;;;;2.90;2.50;;;18.80;58.80;19.70;100105.00;;;;4972428;28;20191;-43
2022/09/26 01:47:16;;;;;;;3.57;2.63;;;18.80;58.90;19.50;100094.00;;;;4973035;28;20180;-43
2022/09/26 01:49:51;;;;;;;4.20;2.60;;;18.80;59.00;19.70;100097.00;;;;4971586;28;20665;-43
2022/09/26 01:52:37;;;;;;;3.10;2.80;;;18.80;58.80;19.70;100093.00;;;;4971243;28;20435;-42
2022/09/26 01:55:10;;;;;;;3.47;2.70;;;18.80;58.90;19.70;100092.00;;;;4971434;28;20299;-42
2022/09/26 01:57:43;;;;;;;3.00;2.50;;;18.70;58.80;19.70;100086.00;;;;4971897;28;20212;-43
2022/09/26 02:00:11;;;;;;;4.47;2.70;;;18.70;58.80;19.70;100080.00;;;;4955732;28;20161;-43
2022/09/26 02:02:45;;;;;;;3.63;2.57;;;18.70;58.80;19.70;100076.00;;;;4972545;28;20165;-43
2022/09/26 02:05:26;;;;;;;5.47;2.70;;;18.70;58.80;19.70;100079.00;;;;4955856;28;20193;-43
2022/09/26 02:08:09;;;;;;;3.70;2.90;;;18.70;58.80;19.70;100048.00;;;;4971251;28;20165;-42
2022/09/26 02:10:43;;;;;;;2.87;2.50;;;18.70;58.70;19.70;100063.00;;;;4957143;28;20820;-43
2022/09/26 02:13:25;;;;;;;3.70;2.60;;;18.70;58.80;19.70;100062.00;;;;4971668;28;20235;-43
2022/09/26 02:15:55;;;;;;;3.27;2.50;;;18.60;58.70;19.60;100058.00;;;;4971467;28;20276;-42
2022/09/26 02:18:43;;;;;;;3.13;2.70;;;18.60;58.60;19.60;100055.00;;;;4971405;28;20332;-43
2022/09/26 02:21:16;;;;;;;3.17;2.77;;;18.60;58.70;19.60;100033.00;;;;4957196;28;20708;-43
2022/09/26 02:23:42;;;;;;;3.10;2.50;;;18.60;58.70;19.60;100046.00;;;;4971240;28;20184;-43
2022/09/26 02:26:07;;;;;;;2.97;2.67;;;18.60;58.70;19.60;100054.00;;;;4972226;28;20173;-43
2022/09/26 02:28:33;;;;;;;2.97;2.77;;;18.60;58.60;19.60;100035.00;;;;4972257;28;20178;-42
2022/09/26 02:31:00;;;;;;;3.17;2.87;;;18.60;58.70;19.60;100032.00;;;;4970603;28;20796;-43
2022/09/26 02:33:27;;;;;;;3.37;2.80;;;18.60;58.60;19.60;100029.00;;;;4970738;28;20662;-43
2022/09/26 02:35:53;;;;;;;3.60;2.63;;;18.60;58.70;19.60;100022.00;;;;4969956;28;20756;-43
2022/09/26 02:38:19;;;;;;;2.63;2.43;;;18.60;59.30;19.60;100028.00;;;;4970489;28;20347;-43
2022/09/26 02:41:27;;;;;;;3.97;2.83;;;18.60;58.70;19.60;100012.00;;;;4972083;28;20654;-43
2022/09/26 02:44:31;;;;;;;3.60;2.57;;;18.60;58.80;19.60;100016.00;;;;4974293;28;20169;-42
2022/09/26 02:47:20;;;;;;;5.03;2.80;;;18.50;58.60;19.50;100014.00;;;;4971761;28;20222;-42
2022/09/26 02:50:07;;;;;;;3.60;2.67;;;18.50;58.70;19.50;100010.00;;;;4971929;28;20671;-42
2022/09/26 02:53:10;;;;;;;3.30;2.67;;;18.50;58.70;19.50;100002.00;;;;4974679;28;20157;-42
2022/09/26 02:56:00;;;;;;;3.87;2.70;;;18.50;58.70;19.50;100002.00;;;;4969990;28;20193;-42
2022/09/26 02:58:36;;;;;;;2.83;2.50;;;18.50;58.70;19.50;99992.00;;;;4970294;28;20252;-42
2022/09/26 03:01:30;;;;;;;3.50;2.60;;;18.50;58.60;19.40;99976.00;;;;4954988;28;20181;-44
2022/09/26 03:04:13;;;;;;;3.17;2.70;;;18.50;58.70;19.40;99984.00;;;;4970208;28;20222;-42
2022/09/26 03:06:43;;;;;;;2.80;2.50;;;18.50;58.70;19.40;99972.00;;;;4971727;28;20153;-42
2022/09/26 03:09:09;;;;;;;3.00;2.70;;;18.40;58.60;19.40;99972.00;;;;4970460;28;20622;-43
2022/09/26 03:11:35;;;;;;;4.93;3.03;;;18.40;58.60;19.40;99962.00;;;;4970061;28;20657;-42
2022/09/26 03:14:01;;;;;;;3.63;2.90;;;18.40;58.60;19.30;99956.00;;;;4954030;28;20191;-43
2022/09/26 03:16:29;;;;;;;5.50;3.00;;;18.40;58.60;19.40;99954.00;;;;4970005;28;20177;-42
2022/09/26 03:19:25;;;;;;;3.67;2.40;;;18.40;59.20;19.40;99957.00;;;;4970261;28;20203;-43
2022/09/26 03:21:51;;;;;;;6.97;2.90;;;18.30;58.60;19.30;99947.00;;;;4971262;28;20161;-42
2022/09/26 03:24:17;;;;;;;4.53;2.83;;;18.30;58.70;19.40;99944.00;;;;4969705;28;20196;-43
2022/09/26 03:26:42;;;;;;;5.10;2.93;;;18.30;58.70;19.40;99933.00;;;;4971077;28;20733;-43
2022/09/26 03:29:08;;;;;;;3.73;2.93;;;18.30;58.60;19.40;99932.00;;;;4969584;28;20177;-43
2022/09/26 03:31:34;;;;;;;5.80;2.93;;;18.40;58.70;19.30;99927.00;;;;4970844;28;20184;-41
2022/09/26 03:33:59;;;;;;;5.67;2.90;;;18.40;58.70;19.30;99935.00;;;;4970376;28;20192;-44
2022/09/26 03:36:25;;;;;;;8.47;2.83;;;18.30;58.70;19.30;99929.00;;;;4970652;28;20596;-42
2022/09/26 03:38:51;;;;;;;6.37;2.87;;;18.30;58.90;19.30;99926.00;;;;4953152;28;20757;-43
2022/09/26 03:41:17;;;;;;;4.30;2.60;;;18.30;58.90;19.30;99915.00;;;;4970613;28;20172;-43
2022/09/26 03:43:42;;;;;;;4.67;2.60;;;18.30;58.80;19.30;99922.00;;;;4970110;28;20188;-43
2022/09/26 03:46:10;;;;;;;3.97;2.57;;;18.30;58.90;19.30;99922.00;;;;4970729;28;20180;-42
2022/09/26 03:48:36;;;;;;;3.67;2.37;;;18.30;58.90;19.30;99906.00;;;;4970693;28;20183;-42
2022/09/26 03:51:15;;;;;;;3.57;2.43;;;18.30;58.80;19.30;99900.00;;;;4969834;28;20176;-43
2022/09/26 03:53:43;;;;;;;4.63;2.53;;;18.30;58.80;19.30;99901.00;;;;4970735;28;20251;-42
2022/09/26 03:56:14;;;;;;;4.50;2.60;;;18.30;58.90;19.30;99895.00;;;;4971361;28;20252;-42
2022/09/26 03:58:40;;;;;;;4.77;2.60;;;18.30;58.90;19.30;99886.00;;;;4971184;28;20193;-43
2022/09/26 04:01:08;;;;;;;10.23;2.67;;;18.30;58.80;19.30;99890.00;;;;4971468;28;20172;-42
2022/09/26 04:03:35;;;;;;;5.60;2.50;;;18.30;58.90;19.30;99878.00;;;;4970861;28;20208;-43
2022/09/26 04:06:01;;;;;;;3.77;2.40;;;18.20;58.70;19.20;99868.00;;;;4971182;28;20169;-43
2022/09/26 04:08:26;;;;;;;5.27;2.43;;;18.30;59.50;19.20;99864.00;;;;4971478;28;20634;-43
2022/09/26 04:10:52;;;;;;;7.73;2.77;;;18.30;58.90;19.20;99859.00;;;;4970296;28;20642;-42
2022/09/26 04:13:18;;;;;;;3.53;2.47;;;18.20;58.70;19.20;99856.00;;;;4971143;28;20177;-43
2022/09/26 04:15:44;;;;;;;4.90;2.50;;;18.30;58.90;19.20;99864.00;;;;4970935;28;20329;-43
2022/09/26 04:18:10;;;;;;;6.37;2.60;;;18.20;58.80;19.20;99856.00;;;;4970634;28;20203;-43
2022/09/26 04:20:36;;;;;;;4.60;2.80;;;18.20;58.80;19.20;99851.00;;;;4971149;28;20179;-43
2022/09/26 04:23:02;;;;;;;6.50;2.50;;;18.20;58.70;19.20;99846.00;;;;4971128;28;20648;-43
2022/09/26 04:25:28;;;;;;;3.83;2.40;;;18.20;58.80;19.20;99845.00;;;;4967483;28;20211;-43
2022/09/26 04:27:54;;;;;;;7.13;2.37;;;18.20;58.90;19.20;99842.00;;;;4969667;28;20180;-43
2022/09/26 04:30:20;;;;;;;5.30;2.30;;;18.20;59.00;19.20;99833.00;;;;4970423;28;20175;-43
2022/09/26 04:32:46;;;;;;;3.77;2.33;;;18.20;59.00;19.20;99826.00;;;;4970593;28;20216;-43
2022/09/26 04:35:12;;;;;;;3.77;2.30;;;18.10;58.90;19.20;99828.00;;;;4970221;28;20201;-43
2022/09/26 04:37:37;;;;;;;6.23;2.53;;;18.10;59.00;19.20;99824.00;;;;4970177;28;20555;-43
2022/09/26 04:40:03;;;;;;;4.50;2.43;;;18.10;59.00;19.10;99817.00;;;;4970332;28;20163;-44
2022/09/26 04:42:35;;;;;;;3.70;2.30;;;18.20;59.30;19.10;99813.00;;;;4971171;28;20272;-43
2022/09/26 04:45:01;;;;;;;5.13;2.73;;;18.20;59.40;19.20;99817.00;;;;4971420;28;20279;-42
2022/09/26 04:47:27;;;;;;;6.87;2.70;;;18.20;59.50;19.10;99811.00;;;;4970521;28;20320;-42
2022/09/26 04:49:53;;;;;;;6.27;2.73;;;18.10;59.40;19.10;99799.00;;;;4968770;28;20879;-43
2022/09/26 04:52:19;;;;;;;3.83;2.60;;;18.10;59.40;19.10;99804.00;;;;4969693;28;20254;-42
2022/09/26 04:54:44;;;;;;;4.00;2.40;;;18.10;59.40;19.10;99796.00;;;;4968910;28;20250;-42
2022/09/26 04:57:12;;;;;;;5.10;2.80;;;18.10;59.40;19.10;99784.00;;;;4970173;28;20670;-42
2022/09/26 04:59:37;;;;;;;8.13;2.93;;;18.10;59.40;19.10;99784.00;;;;4969626;28;20202;-42
2022/09/26 05:02:07;;;;;;;6.00;2.93;;;18.10;59.40;19.10;99786.00;;;;4969884;28;20219;-41
2022/09/26 05:04:33;;;;;;;4.00;2.83;;;18.10;59.40;19.10;99779.00;;;;4969227;28;20202;-43
2022/09/26 05:06:59;;;;;;;5.70;2.97;;;18.10;59.40;19.10;99776.00;;;;4968907;28;20226;-42
2022/09/26 05:09:25;;;;;;;4.70;3.13;;;18.10;59.40;19.10;99770.00;;;;4970024;28;20178;-41
2022/09/26 05:11:51;;;;;;;6.27;3.17;;;18.00;59.50;19.10;99773.00;;;;4968697;28;20254;-42
2022/09/26 05:14:17;;;;;;;7.43;4.00;;;18.00;59.60;19.10;99769.00;;;;4969317;28;20334;-42
2022/09/26 05:16:43;;;;;;;12.00;4.10;;;18.00;59.60;19.00;99765.00;;;;4970037;28;20258;-41
2022/09/26 05:19:08;;;;;;;10.03;4.07;;;18.00;59.60;19.00;99767.00;;;;4970013;28;20200;-41
2022/09/26 05:21:34;;;;;;;11.50;4.20;;;18.00;59.50;19.00;99766.00;;;;4969731;28;20173;-42
2022/09/26 05:26:49;;;;;;;6.87;3.70;;;18.00;59.40;19.00;99759.00;;;;4969885;28;20182;-43
2022/09/26 05:29:16;;;;;;;5.63;3.50;;;18.00;59.40;19.00;99765.00;;;;4968910;28;20274;-42
2022/09/26 05:31:42;;;;;;;5.87;3.70;;;17.90;59.20;19.00;99752.00;;;;4968800;28;20241;-42
2022/09/26 05:34:11;;;;;;;6.43;3.33;;;17.90;59.20;18.80;99748.00;;;;4968834;28;20229;-42
2022/09/26 05:36:38;;;;;;;6.00;3.80;;;17.90;59.20;19.00;99765.00;;;;4969614;28;20232;-42
2022/09/26 05:39:04;;;;;;;5.47;3.30;;;17.90;59.20;18.90;99753.00;;;;4969635;28;20212;-42
2022/09/26 05:41:30;;;;;;;5.87;3.87;;;17.90;59.20;18.90;99746.00;;;;4969767;28;20755;-42
2022/09/26 05:43:56;;;;;;;10.13;4.00;;;17.90;59.20;18.90;99740.00;;;;4967733;28;20289;-42
2022/09/26 05:46:22;;;;;;;12.87;4.10;;;17.80;59.20;18.90;99742.00;;;;4968336;28;20284;-42
2022/09/26 05:48:48;;;;;;;6.10;3.37;;;17.90;59.40;18.90;99738.00;;;;4968503;28;20178;-42
2022/09/26 05:51:16;;;;;;;12.33;4.00;;;17.80;59.30;18.90;99745.00;;;;4968351;28;20748;-42
2022/09/26 05:53:43;;;;;;;6.80;3.80;;;17.90;59.20;18.90;99740.00;;;;4965251;28;20176;-42
2022/09/26 05:56:10;;;;;;;4.63;3.50;;;17.80;59.20;18.90;99727.00;;;;4967515;28;20195;-42
2022/09/26 05:58:38;;;;;;;3.90;3.40;;;17.90;59.20;18.90;99733.00;;;;4967819;28;20295;-41
2022/09/26 06:01:14;;;;;;;4.97;3.63;;;17.80;59.20;18.90;99729.00;;;;4967891;28;20201;-42
2022/09/26 06:03:44;;;;;;;4.10;3.60;;;17.80;59.20;18.80;99731.00;;;;4967135;28;20153;-43
2022/09/26 06:06:15;;;;;;;4.73;3.70;;;17.80;59.20;18.80;99729.00;;;;4968751;28;20234;-41
2022/09/26 06:08:41;;;;;;;4.10;3.70;;;17.80;59.20;18.80;99724.00;;;;4968938;28;20240;-42
2022/09/26 06:11:15;;;;;;;4.17;3.73;;;17.80;59.20;18.80;99718.00;;;;4970536;28;20212;-42
2022/09/26 06:13:45;;;;;;;5.43;3.67;;;17.80;59.20;18.80;99710.00;;;;4970309;28;20646;-42
2022/09/26 06:16:17;;;;;;;3.63;3.33;;;17.80;59.20;18.80;99707.00;;;;4971430;28;20534;-42
2022/09/26 06:18:43;;;;;;;4.03;3.70;;;17.80;59.20;18.80;99711.00;;;;4971253;28;20198;-42
2022/09/26 06:21:10;;;;;;;3.93;3.60;;;17.80;59.20;18.80;99704.00;;;;4972277;28;20266;-42
2022/09/26 06:23:36;;;;;;;4.90;3.63;;;17.70;59.10;18.80;99698.00;;;;4972369;28;20813;-41
2022/09/26 06:26:03;;;;;;;4.40;3.90;;;17.70;59.00;18.80;99692.00;;;;4972526;28;20256;-42
2022/09/26 06:28:29;;;;;;;4.53;3.70;;;17.80;59.10;18.80;99691.00;;;;4972611;28;20253;-42
2022/09/26 06:30:56;;;;;;;3.83;3.47;;;17.70;59.10;18.80;99687.00;;;;4972639;28;20178;-42
2022/09/26 06:33:21;;;;;;;3.73;3.43;;;17.70;59.00;18.80;99687.00;;;;4975695;28;20182;-42
2022/09/26 06:35:57;;;;;;;4.43;4.00;;;17.70;59.00;18.70;99675.00;;;;4972391;28;20636;-42
2022/09/26 06:38:23;;;;;;;3.90;3.50;;;17.70;59.00;18.70;99674.00;;;;4972203;28;20215;-43
2022/09/26 06:40:51;;;;;;;4.03;3.63;;;17.70;59.00;18.70;99675.00;;;;4972569;28;20177;-42
2022/09/26 06:43:17;;;;;;;3.90;3.47;;;17.70;59.00;18.70;99665.00;;;;4972077;28;20163;-42
2022/09/26 06:45:44;;;;;;;3.80;3.43;;;17.70;59.00;18.70;99668.00;;;;4971786;28;20869;-42
2022/09/26 06:48:10;;;;;;;4.57;3.70;;;17.70;59.00;18.70;99659.00;;;;4972618;28;20590;-42
2022/09/26 06:50:36;;;;;;;3.57;3.27;;;17.70;58.90;18.70;99658.00;;;;4972268;28;20653;-42
2022/09/26 06:53:03;;;;;;;3.83;3.37;;;17.70;58.90;18.70;99641.00;;;;4972143;28;20187;-42
2022/09/26 06:55:29;;;;;;;3.77;3.47;;;17.60;58.90;18.70;99647.00;;;;4971045;28;20190;-42
2022/09/26 06:57:54;;;;;;;3.60;3.30;;;17.60;58.90;18.70;99641.00;;;;4967515;28;20298;-42
2022/09/26 07:00:20;;;;;;;4.53;3.57;;;17.60;58.90;18.60;99638.00;;;;4924652;28;20260;-42
2022/09/26 07:02:53;;;;;;;4.00;3.60;;;17.60;58.90;18.60;99640.00;;;;4971282;28;20179;-42
2022/09/26 07:05:20;;;;;;;4.47;3.47;;;17.50;58.80;18.60;99638.00;;;;4971452;28;20197;-42
2022/09/26 07:07:47;;;;;;;4.27;3.67;;;17.60;58.90;18.60;99632.00;;;;4971806;28;20555;-42
2022/09/26 07:10:19;;;;;;;3.87;3.10;;;17.60;58.90;18.60;99625.00;;;;4972332;28;20184;-43
2022/09/26 07:12:46;;;;;;;3.40;3.10;;;17.60;58.90;18.60;99622.00;;;;4971662;28;20282;-42
2022/09/26 07:15:17;;;;;;;4.83;3.50;;;17.60;59.00;18.60;99621.00;;;;4971479;28;20190;-43
2022/09/26 07:17:44;;;;;;;3.53;3.17;;;17.60;59.00;18.60;99622.00;;;;4971681;28;20199;-43
2022/09/26 07:20:16;;;;;;;4.10;3.23;;;17.50;58.90;18.50;99630.00;;;;4971716;28;20250;-42
2022/09/26 07:22:42;;;;;;;3.30;3.00;;;17.50;58.80;18.50;99620.00;;;;4971716;28;20798;-42
2022/09/26 07:25:09;;;;;;;3.13;2.83;;;17.50;58.80;18.50;99608.00;;;;4970205;28;20227;-42
2022/09/26 07:27:35;;;;;;;4.60;3.10;;;17.50;58.80;18.50;99592.00;;;;4971188;28;20260;-42
2022/09/26 07:30:02;;;;;;;3.67;3.03;;;17.50;58.80;18.50;99618.00;;;;4986223;28;20272;-42
2022/09/26 07:32:30;;;;;;;3.30;2.90;;;17.50;58.80;18.50;99609.00;;;;4990859;28;20185;-42
2022/09/26 07:34:58;;;;;;;4.20;2.60;;;17.50;58.90;18.50;99607.00;;;;4990590;28;20197;-42
2022/09/26 07:37:24;;;;;;;5.60;3.03;;;17.40;58.90;18.50;99591.00;;;;4989766;28;20169;-42
2022/09/26 07:39:50;;;;;;;5.40;3.00;;;17.50;59.10;18.50;99596.00;;;;4990593;28;20231;-42
2022/09/26 07:42:16;;;;;;;6.23;2.70;;;17.50;59.10;18.50;99593.00;;;;4990423;28;20654;-42
2022/09/26 07:44:43;;;;;;;4.73;2.67;;;17.50;59.00;18.50;99594.00;;;;4990035;28;20677;-42
2022/09/26 07:52:39;;;;;;;6.43;2.60;;;17.50;59.00;18.50;99586.00;;;;4984527;28;20308;-43
2022/09/26 07:55:06;;;;;;;5.37;3.00;;;17.50;59.20;18.50;99589.00;;;;4969832;28;20208;-42
2022/09/26 07:57:34;;;;;;;7.70;2.60;;;17.50;59.20;18.50;99588.00;;;;4970867;28;20210;-43
2022/09/26 08:00:04;;;;;;;4.97;2.67;;;17.50;59.30;18.50;99589.00;;;;4923854;28;20178;-41
2022/09/26 08:02:32;;;;;;;5.80;2.93;;;17.50;59.40;18.50;99589.00;;;;4971554;28;20192;-44
2022/09/26 08:05:02;;;;;;;5.57;2.70;;;17.40;59.50;18.50;99578.00;;;;4971124;28;20199;-43
2022/09/26 08:07:28;;;;;;;4.77;2.63;;;17.50;59.60;18.50;99569.00;;;;4970950;28;20158;-42
2022/09/26 08:09:55;;;;;;;6.47;2.73;;;17.50;59.80;18.50;99569.00;;;;4970862;28;20176;-42
2022/09/26 08:12:21;;;;;;;8.23;2.90;;;17.50;59.90;18.50;99566.00;;;;4971127;28;20173;-42
2022/09/26 08:14:51;;;;;;;6.23;2.83;;;17.50;59.90;18.50;99565.00;;;;4971297;28;20202;-42
2022/09/26 08:17:18;;;;;;;8.17;2.70;;;17.50;59.90;18.50;99564.00;;;;4971754;28;20174;-44
2022/09/26 08:19:43;;;;;;;4.90;2.60;;;17.40;59.80;18.50;99561.00;;;;4970972;28;20185;-42
2022/09/26 08:22:11;;;;;;;4.50;2.67;;;17.40;59.80;18.50;99563.00;;;;4971343;28;20301;-42
2022/09/26 08:24:37;;;;;;;7.57;2.80;;;17.50;59.90;18.50;99564.00;;;;4970584;28;20220;-41
2022/09/26 08:27:03;;;;;;;6.47;2.57;;;17.40;59.80;18.50;99563.00;;;;4971095;28;20178;-42
2022/09/26 08:29:33;;;;;;;4.83;2.80;;;17.40;59.90;18.50;99567.00;;;;4971356;28;20585;-43
2022/09/26 08:32:01;;;;;;;5.60;2.47;;;17.40;60.00;18.50;99556.00;;;;4971141;28;20177;-42
2022/09/26 08:34:26;;;;;;;10.33;2.70;;;17.40;60.00;18.50;99560.00;;;;4969548;28;20198;-43
2022/09/26 08:36:53;;;;;;;4.67;2.70;;;17.40;60.10;18.50;99568.00;;;;4970562;28;20241;-42
2022/09/26 08:39:20;;;;;;;5.47;2.67;;;17.40;60.00;18.50;99569.00;;;;4970685;28;20630;-43
2022/09/26 08:42:45;;;;;;;4.27;2.57;;;17.40;60.00;18.50;99571.00;;;;4970319;28;20194;-42
2022/09/26 08:46:35;;;;;;;5.10;2.60;;;17.40;60.20;18.40;99568.00;;;;4965026;28;20289;-42
2022/09/26 08:49:22;;;;;;;3.87;2.50;;;17.40;60.10;18.40;99566.00;;;;4969480;28;20289;-43
2022/09/26 08:51:49;;;;;;;4.30;2.40;;;17.40;60.10;18.40;99569.00;;;;4969154;28;20642;-43
2022/09/26 08:54:38;;;;;;;5.63;2.50;;;17.40;60.10;18.40;99571.00;;;;4969021;28;20614;-42
2022/09/26 08:57:13;;;;;;;5.87;2.70;;;17.40;60.10;18.40;99551.00;;;;4955727;28;20184;-42
2022/09/26 08:59:42;;;;;;;5.10;2.67;;;17.40;60.10;18.40;99568.00;;;;4954847;28;20216;-42
2022/09/26 09:02:38;;;;;;;5.60;2.50;;;17.40;60.10;18.40;99575.00;;;;4969677;28;20177;-42
2022/09/26 09:05:32;;;;;;;5.50;2.50;;;17.30;60.10;18.40;99565.00;;;;4936724;28;20728;-42
2022/09/26 09:07:58;;;;;;;7.47;2.60;;;17.30;60.10;18.40;99496.00;;;;4969689;28;20191;-42
2022/09/26 09:11:05;;;;;;;7.63;3.00;;;17.40;60.20;18.40;99566.00;;;;4953131;28;20400;-42
2022/09/26 09:13:37;;;;;;;6.13;2.63;;;17.30;60.10;18.30;99565.00;;;;4968612;28;20173;-43
2022/09/26 09:16:17;;;;;;;7.53;3.00;;;17.30;60.20;18.30;99544.00;;;;4970279;28;20189;-42
2022/09/26 09:18:58;;;;;;;6.40;2.80;;;17.30;60.20;18.30;99543.00;;;;4970413;28;20281;-43
2022/09/26 09:21:48;;;;;;;9.70;2.70;;;17.30;60.20;18.40;99539.00;;;;4969231;28;20232;-43
2022/09/26 09:24:59;;;;;;;10.00;2.77;;;17.30;60.20;18.40;99541.00;;;;4970285;28;20196;-42
2022/09/26 09:27:52;;;;;;;6.13;2.37;;;17.30;60.20;18.30;99531.00;;;;4970491;28;20191;-42
2022/09/26 09:30:28;;;;;;;9.40;2.73;;;17.30;60.30;18.30;99541.00;;;;4970407;28;20248;-42
2022/09/26 09:33:07;;;;;;;4.23;2.60;;;17.30;60.20;18.10;99528.00;;;;4969041;28;20221;-42
2022/09/26 09:36:05;;;;;;;7.63;2.57;;;17.30;60.20;18.30;99535.00;;;;4954207;28;20205;-43
2022/09/26 09:38:33;;;;;;;4.70;2.17;;;17.30;60.20;18.30;99521.00;;;;4968955;28;20221;-43
2022/09/26 09:41:01;;;;;;;5.93;2.40;;;17.30;60.30;18.30;99531.00;;;;4952747;28;20174;-43
2022/09/26 09:43:44;;;;;;;4.47;2.60;;;17.30;60.30;18.30;99514.00;;;;4968345;28;20181;-42
2022/09/26 09:46:28;;;;;;;6.80;2.40;;;17.30;60.40;18.30;99505.00;;;;4970430;28;20188;-41
2022/09/26 09:49:07;;;;;;;4.63;2.20;;;17.30;60.30;18.30;99487.00;;;;4972839;28;20190;-42
2022/09/26 09:52:01;;;;;;;2.67;2.20;;;17.30;60.30;18.30;99502.00;;;;4972217;28;20263;-42
2022/09/26 09:54:45;;;;;;;4.33;2.40;;;17.20;60.20;18.30;99485.00;;;;4971994;28;20196;-41
2022/09/26 09:57:23;;;;;;;3.93;2.50;;;17.30;60.30;18.30;99495.00;;;;4957513;28;20192;-43
2022/09/26 10:00:16;;;;;;;3.20;2.20;;;17.20;60.20;18.30;99495.00;;;;4973737;28;20319;-44
2022/09/26 10:03:04;;;;;;;5.00;2.40;;;17.20;60.30;18.30;99495.00;;;;4972796;28;20177;-43
2022/09/26 10:05:44;;;;;;;2.30;2.10;;;17.20;60.20;18.30;99482.00;;;;4972153;28;20819;-41
2022/09/26 10:08:16;;;;;;;2.97;2.10;;;17.20;60.20;18.30;99473.00;;;;4956336;28;20790;-42
2022/09/26 10:11:23;;;;;;;3.30;2.20;;;17.20;60.20;18.30;99480.00;;;;4972297;28;20165;-41
2022/09/26 10:13:54;;;;;;;2.40;2.20;;;17.20;60.30;18.30;99469.00;;;;4970836;28;20217;-42
2022/09/26 10:16:20;;;;;;;4.27;2.20;;;17.20;60.20;18.30;99460.00;;;;4973255;28;20247;-42
2022/09/26 10:19:06;;;;;;;4.30;2.40;;;17.20;60.20;18.30;99458.00;;;;4956232;28;20680;-42
2022/09/26 10:21:41;;;;;;;2.63;2.10;;;17.20;60.20;18.30;99449.00;;;;4973759;28;20267;-41
2022/09/26 10:24:25;;;;;;;2.53;2.20;;;17.20;60.20;18.30;99451.00;;;;4956387;28;20283;-43
2022/09/26 10:26:51;;;;;;;2.33;2.13;;;17.20;60.20;18.30;99455.00;;;;4957960;28;20181;-43
2022/09/26 10:29:37;;;;;;;2.53;2.20;;;17.20;60.20;18.30;99442.00;;;;4955721;28;20178;-42
2022/09/26 10:32:03;;;;;;;4.27;2.13;;;17.20;60.20;18.30;99447.00;;;;4956820;28;20194;-44
2022/09/26 10:34:33;;;;;;;2.40;1.80;;;17.20;60.20;18.30;99435.00;;;;4955352;28;20207;-42
2022/09/26 10:37:23;;;;;;;4.10;2.20;;;17.20;60.20;18.30;99441.00;;;;4972765;28;20246;-43
2022/09/26 10:42:45;;;;;;;3.27;1.97;;;17.20;60.20;18.30;99422.00;;;;4972759;28;20189;-43
2022/09/26 10:45:17;;;;;;;2.40;2.20;;;17.20;60.20;18.30;99420.00;;;;4955765;28;20201;-42
2022/09/26 10:47:44;;;;;;;2.97;2.13;;;17.20;60.20;18.30;99407.00;;;;4972516;28;20667;-44
2022/09/26 10:50:26;;;;;;;2.53;2.20;;;17.20;60.20;18.30;99409.00;;;;4971245;28;20181;-42
2022/09/26 10:53:02;;;;;;;2.23;2.03;;;17.20;60.20;18.30;99404.00;;;;4957356;28;20161;-42
2022/09/26 10:55:35;;;;;;;2.50;2.30;;;17.20;60.20;18.30;99389.00;;;;4972328;28;20208;-42
2022/09/26 10:58:04;;;;;;;2.13;1.90;;;17.20;60.30;18.00;99391.00;;;;4954979;28;20236;-42
2022/09/26 11:00:36;;;;;;;2.30;1.93;;;17.20;60.20;18.30;99401.00;;;;4955902;28;20516;-42
2022/09/26 11:03:07;;;;;;;2.57;2.10;;;17.20;60.20;18.30;99383.00;;;;4972191;28;20324;-43
2022/09/26 11:08:20;;;;;;;2.73;1.90;;;17.20;60.20;18.30;99373.00;;;;4957627;28;20170;-42
2022/09/26 11:10:46;;;;;;;3.03;1.97;;;17.20;60.30;18.30;99379.00;;;;4972341;28;20188;-43
2022/09/26 11:13:26;;;;;;;2.20;2.00;;;17.20;60.20;18.30;99375.00;;;;4934614;28;20177;-43
2022/09/26 11:16:00;;;;;;;3.07;1.97;;;17.20;60.20;18.30;99367.00;;;;4975479;28;20216;-42
2022/09/26 11:18:49;;;;;;;2.37;2.07;;;17.20;60.20;18.30;99361.00;;;;4986472;28;20232;-42
2022/09/26 11:21:45;;;;;;;2.00;1.80;;;17.20;60.30;18.30;99362.00;;;;4970609;28;20244;-43
2022/09/26 11:24:13;;;;;;;2.90;2.03;;;17.20;60.30;18.20;99360.00;;;;4970534;28;20193;-43
2022/09/26 11:27:10;;;;;;;3.87;2.07;;;17.20;60.50;18.30;99360.00;;;;4970016;28;20766;-42
2022/09/26 11:29:57;;;;;;;2.30;2.10;;;17.30;60.60;18.30;99343.00;;;;4969381;28;20546;-43
2022/09/26 11:32:30;;;;;;;4.30;2.13;;;17.30;60.70;18.30;99330.00;;;;4966004;28;20555;-43
2022/09/26 11:35:02;;;;;;;4.33;2.13;;;17.40;61.00;18.30;99321.00;;;;4969900;28;20302;-43